sensor_id;sensor_type;location;lat;lon;timestamp;pressure;altitude;pressure_sealevel;temperature;humidity
3434;BME280;1730;41.932;25.548;2022-11-14T00:00:27;103032.66;;;6.44;100.00
3434;BME280;1730;41.932;25.548;2022-11-14T00:02:52;103074.78;;;6.75;100.00
3434;BME280;1730;41.932;25.548;2022-11-14T00:05:21;103039.19;;;6.67;100.00
3434;BME280;1730;41.932;25.548;2022-11-14T00:07:46;103009.22;;;6.52;100.00
3434;BME280;1730;41.932;25.548;2022-11-14T00:10:13;102940.41;;;6.15;100.00
3434;BME280;1730;41.932;25.548;2022-11-14T00:12:39;102997.59;;;6.53;100.00
3434;BME280;1730;41.932;25.548;2022-11-14T00:15:05;102989.25;;;6.63;100.00
3434;BME280;1730;41.932;25.548;2022-11-14T00:17:31;102971.44;;;6.62;100.00
3434;BME280;1730;41.932;25.548;2022-11-14T00:19:57;102950.78;;;6.66;100.00
3434;BME280;1730;41.932;25.548;2022-11-14T00:22:22;102809.59;;;5.99;100.00
3434;BME280;1730;41.932;25.548;2022-11-14T00:24:48;102839.94;;;6.33;100.00
3434;BME280;1730;41.932;25.548;2022-11-14T00:27:14;102819.03;;;6.46;100.00
3434;BME280;1730;41.932;25.548;2022-11-14T00:29:39;102644.72;;;5.53;100.00
3434;BME280;1730;41.932;25.548;2022-11-14T00:32:05;102779.19;;;6.33;100.00
3434;BME280;1730;41.932;25.548;2022-11-14T00:34:31;102675.38;;;5.75;100.00
3434;BME280;1730;41.932;25.548;2022-11-14T00:36:56;102795.87;;;6.45;100.00
3434;BME280;1730;41.932;25.548;2022-11-14T00:39:22;102558.78;;;4.99;100.00
3434;BME280;1730;41.932;25.548;2022-11-14T00:41:47;102781.69;;;6.07;100.00
3434;BME280;1730;41.932;25.548;2022-11-14T00:44:13;102792.19;;;6.15;100.00
3434;BME280;1730;41.932;25.548;2022-11-14T00:46:38;102151.97;;;2.11;100.00
3434;BME280;1730;41.932;25.548;2022-11-14T00:49:04;102394.75;;;3.60;100.00
3434;BME280;1730;41.932;25.548;2022-11-14T00:51:29;102810.50;;;5.98;100.00
3434;BME280;1730;41.932;25.548;2022-11-14T00:53:55;102784.97;;;5.83;100.00
3434;BME280;1730;41.932;25.548;2022-11-14T00:56:21;102817.63;;;5.99;100.00
3434;BME280;1730;41.932;25.548;2022-11-14T00:58:46;102865.34;;;6.18;100.00
3434;BME280;1730;41.932;25.548;2022-11-14T01:01:12;102570.56;;;4.55;100.00
3434;BME280;1730;41.932;25.548;2022-11-14T01:03:37;102885.16;;;6.45;100.00
3434;BME280;1730;41.932;25.548;2022-11-14T01:06:05;102882.19;;;6.57;100.00
3434;BME280;1730;41.932;25.548;2022-11-14T01:08:32;102843.94;;;6.51;100.00
3434;BME280;1730;41.932;25.548;2022-11-14T01:10:58;102823.47;;;6.48;100.00
3434;BME280;1730;41.932;25.548;2022-11-14T01:13:25;102628.88;;;5.45;100.00
3434;BME280;1730;41.932;25.548;2022-11-14T01:15:51;102764.34;;;6.20;100.00
3434;BME280;1730;41.932;25.548;2022-11-14T01:18:19;102704.31;;;5.97;100.00
3434;BME280;1730;41.932;25.548;2022-11-14T01:20:46;102760.28;;;6.38;100.00
3434;BME280;1730;41.932;25.548;2022-11-14T01:23:14;102725.69;;;6.30;100.00
3434;BME280;1730;41.932;25.548;2022-11-14T01:25:41;102675.81;;;6.25;100.00
3434;BME280;1730;41.932;25.548;2022-11-14T01:28:09;102660.59;;;6.27;100.00
3434;BME280;1730;41.932;25.548;2022-11-14T01:30:35;102607.53;;;6.09;100.00
3434;BME280;1730;41.932;25.548;2022-11-14T01:33:02;102615.44;;;6.13;100.00
3434;BME280;1730;41.932;25.548;2022-11-14T01:35:27;102582.09;;;5.93;100.00
3434;BME280;1730;41.932;25.548;2022-11-14T01:37:53;102614.22;;;6.23;100.00
3434;BME280;1730;41.932;25.548;2022-11-14T01:40:18;102562.50;;;5.92;100.00
3434;BME280;1730;41.932;25.548;2022-11-14T01:48:19;102579.91;;;6.07;100.00
3434;BME280;1730;41.932;25.548;2022-11-14T01:50:49;102569.56;;;5.95;100.00
3434;BME280;1730;41.932;25.548;2022-11-14T01:53:17;102430.81;;;5.18;100.00
3434;BME280;1730;41.932;25.548;2022-11-14T01:55:42;102563.66;;;5.82;100.00
3434;BME280;1730;41.932;25.548;2022-11-14T01:58:08;102573.34;;;5.86;100.00
3434;BME280;1730;41.932;25.548;2022-11-14T02:00:34;102588.47;;;5.88;100.00
3434;BME280;1730;41.932;25.548;2022-11-14T02:03:00;102396.53;;;4.69;100.00
3434;BME280;1730;41.932;25.548;2022-11-14T02:05:26;102590.69;;;5.73;100.00
3434;BME280;1730;41.932;25.548;2022-11-14T02:07:51;102604.84;;;5.76;100.00
3434;BME280;1730;41.932;25.548;2022-11-14T02:10:19;102262.19;;;3.63;100.00
3434;BME280;1730;41.932;25.548;2022-11-14T02:12:45;102627.88;;;5.83;100.00
3434;BME280;1730;41.932;25.548;2022-11-14T02:15:12;102639.41;;;5.85;100.00
3434;BME280;1730;41.932;25.548;2022-11-14T02:17:39;102656.13;;;5.95;100.00
3434;BME280;1730;41.932;25.548;2022-11-14T02:20:14;102503.28;;;5.09;100.00
3434;BME280;1730;41.932;25.548;2022-11-14T02:22:41;102661.66;;;5.89;100.00
3434;BME280;1730;41.932;25.548;2022-11-14T02:25:08;102685.78;;;6.20;100.00
3434;BME280;1730;41.932;25.548;2022-11-14T02:27:35;102658.31;;;6.13;100.00
3434;BME280;1730;41.932;25.548;2022-11-14T02:30:20;102465.00;;;5.05;100.00
3434;BME280;1730;41.932;25.548;2022-11-14T02:32:45;102458.50;;;5.15;100.00
3434;BME280;1730;41.932;25.548;2022-11-14T02:35:11;102578.84;;;5.81;100.00
3434;BME280;1730;41.932;25.548;2022-11-14T02:37:38;102550.56;;;5.71;100.00
3434;BME280;1730;41.932;25.548;2022-11-14T02:40:04;102544.38;;;5.69;100.00
3434;BME280;1730;41.932;25.548;2022-11-14T02:42:30;102548.22;;;5.59;100.00
3434;BME280;1730;41.932;25.548;2022-11-14T02:44:55;102518.53;;;5.37;100.00
3434;BME280;1730;41.932;25.548;2022-11-14T02:47:21;102522.06;;;5.38;100.00
3434;BME280;1730;41.932;25.548;2022-11-14T02:49:50;102514.22;;;5.32;100.00
3434;BME280;1730;41.932;25.548;2022-11-14T02:52:16;102536.50;;;5.32;100.00
3434;BME280;1730;41.932;25.548;2022-11-14T02:54:42;102565.53;;;5.48;100.00
3434;BME280;1730;41.932;25.548;2022-11-14T02:57:07;102514.03;;;5.06;100.00
3434;BME280;1730;41.932;25.548;2022-11-14T02:59:33;102584.72;;;5.62;100.00
3434;BME280;1730;41.932;25.548;2022-11-14T03:01:58;102535.28;;;5.44;100.00
3434;BME280;1730;41.932;25.548;2022-11-14T03:04:24;102549.34;;;5.52;100.00
3434;BME280;1730;41.932;25.548;2022-11-14T03:06:49;102350.72;;;4.50;100.00
3434;BME280;1730;41.932;25.548;2022-11-14T03:09:15;102468.78;;;5.30;100.00
3434;BME280;1730;41.932;25.548;2022-11-14T03:11:40;102283.75;;;4.24;100.00
3434;BME280;1730;41.932;25.548;2022-11-14T03:14:06;102448.44;;;5.25;100.00
3434;BME280;1730;41.932;25.548;2022-11-14T03:16:31;102453.66;;;5.29;100.00
3434;BME280;1730;41.932;25.548;2022-11-14T03:18:57;102195.09;;;3.79;100.00
3434;BME280;1730;41.932;25.548;2022-11-14T03:21:22;102267.09;;;4.14;100.00
3434;BME280;1730;41.932;25.548;2022-11-14T03:23:48;102311.59;;;4.15;100.00
3434;BME280;1730;41.932;25.548;2022-11-14T03:26:14;102323.50;;;4.36;100.00
3434;BME280;1730;41.932;25.548;2022-11-14T03:28:40;102487.41;;;5.01;100.00
3434;BME280;1730;41.932;25.548;2022-11-14T03:31:07;102455.41;;;4.98;100.00
3434;BME280;1730;41.932;25.548;2022-11-14T03:33:34;102429.78;;;4.91;100.00
3434;BME280;1730;41.932;25.548;2022-11-14T03:36:00;102440.25;;;4.98;100.00
3434;BME280;1730;41.932;25.548;2022-11-14T03:38:26;102431.94;;;4.77;100.00
3434;BME280;1730;41.932;25.548;2022-11-14T03:40:52;102435.41;;;4.80;100.00
3434;BME280;1730;41.932;25.548;2022-11-14T03:43:19;102464.41;;;4.95;100.00
3434;BME280;1730;41.932;25.548;2022-11-14T03:45:45;102333.50;;;4.28;100.00
3434;BME280;1730;41.932;25.548;2022-11-14T03:48:11;102064.72;;;2.63;100.00
3434;BME280;1730;41.932;25.548;2022-11-14T03:50:37;102469.91;;;4.89;100.00
3434;BME280;1730;41.932;25.548;2022-11-14T03:53:03;102424.41;;;4.59;100.00
3434;BME280;1730;41.932;25.548;2022-11-14T03:55:28;102501.37;;;5.12;100.00
3434;BME280;1730;41.932;25.548;2022-11-14T03:57:54;102476.22;;;5.19;100.00
3434;BME280;1730;41.932;25.548;2022-11-14T04:00:19;102213.25;;;3.64;100.00
3434;BME280;1730;41.932;25.548;2022-11-14T04:02:45;102427.53;;;5.08;100.00
3434;BME280;1730;41.932;25.548;2022-11-14T04:05:12;102344.94;;;4.65;100.00
3434;BME280;1730;41.932;25.548;2022-11-14T04:07:37;102387.78;;;4.94;100.00
3434;BME280;1730;41.932;25.548;2022-11-14T04:10:03;102242.84;;;4.22;100.00
3434;BME280;1730;41.932;25.548;2022-11-14T04:12:29;102228.97;;;4.09;100.00
3434;BME280;1730;41.932;25.548;2022-11-14T04:14:54;102357.00;;;4.80;100.00
3434;BME280;1730;41.932;25.548;2022-11-14T04:17:20;101672.59;;;0.90;100.00
3434;BME280;1730;41.932;25.548;2022-11-14T04:19:45;102309.66;;;4.52;100.00
3434;BME280;1730;41.932;25.548;2022-11-14T04:22:11;102374.59;;;4.88;100.00
3434;BME280;1730;41.932;25.548;2022-11-14T04:24:36;102243.41;;;4.02;100.00
3434;BME280;1730;41.932;25.548;2022-11-14T04:27:02;102390.97;;;5.09;100.00
3434;BME280;1730;41.932;25.548;2022-11-14T04:29:27;102349.09;;;5.08;100.00
3434;BME280;1730;41.932;25.548;2022-11-14T04:31:53;102274.06;;;4.83;100.00
3434;BME280;1730;41.932;25.548;2022-11-14T04:34:19;102268.53;;;4.89;100.00
3434;BME280;1730;41.932;25.548;2022-11-14T04:36:44;102219.87;;;4.78;100.00
3434;BME280;1730;41.932;25.548;2022-11-14T04:39:10;102201.31;;;4.73;100.00
3434;BME280;1730;41.932;25.548;2022-11-14T04:41:35;102184.66;;;4.64;100.00
3434;BME280;1730;41.932;25.548;2022-11-14T04:44:00;102096.59;;;4.02;100.00
3434;BME280;1730;41.932;25.548;2022-11-14T04:46:26;102180.78;;;4.44;100.00
3434;BME280;1730;41.932;25.548;2022-11-14T04:48:52;102208.22;;;4.51;100.00
3434;BME280;1730;41.932;25.548;2022-11-14T04:51:17;102194.72;;;4.25;100.00
3434;BME280;1730;41.932;25.548;2022-11-14T04:53:43;101468.09;;;-0.17;100.00
3434;BME280;1730;41.932;25.548;2022-11-14T04:56:08;101692.72;;;1.01;100.00
3434;BME280;1730;41.932;25.548;2022-11-14T04:58:34;101923.88;;;2.53;100.00
3434;BME280;1730;41.932;25.548;2022-11-14T05:01:06;102102.94;;;3.67;100.00
3434;BME280;1730;41.932;25.548;2022-11-14T05:03:32;102243.22;;;4.40;100.00
3434;BME280;1730;41.932;25.548;2022-11-14T05:06:01;102263.44;;;4.50;100.00
3434;BME280;1730;41.932;25.548;2022-11-14T05:08:28;102268.41;;;4.63;100.00
3434;BME280;1730;41.932;25.548;2022-11-14T05:10:53;102310.88;;;4.73;100.00
3434;BME280;1730;41.932;25.548;2022-11-14T05:13:19;102264.50;;;4.74;100.00
3434;BME280;1730;41.932;25.548;2022-11-14T05:15:44;102088.81;;;3.94;100.00
3434;BME280;1730;41.932;25.548;2022-11-14T05:18:10;102218.12;;;4.77;100.00
3434;BME280;1730;41.932;25.548;2022-11-14T05:20:35;102042.34;;;3.71;100.00
3434;BME280;1730;41.932;25.548;2022-11-14T05:23:01;102228.16;;;4.69;100.00
3434;BME280;1730;41.932;25.548;2022-11-14T05:25:26;102181.47;;;4.80;100.00
3434;BME280;1730;41.932;25.548;2022-11-14T05:27:52;102163.91;;;4.73;100.00
3434;BME280;1730;41.932;25.548;2022-11-14T05:30:17;102150.47;;;4.75;100.00
3434;BME280;1730;41.932;25.548;2022-11-14T05:32:43;101858.97;;;2.89;100.00
3434;BME280;1730;41.932;25.548;2022-11-14T05:35:09;101710.34;;;2.08;100.00
3434;BME280;1730;41.932;25.548;2022-11-14T05:37:34;102177.12;;;4.78;100.00
3434;BME280;1730;41.932;25.548;2022-11-14T05:40:01;102182.25;;;4.84;100.00
3434;BME280;1730;41.932;25.548;2022-11-14T05:42:27;102172.78;;;4.74;100.00
3434;BME280;1730;41.932;25.548;2022-11-14T05:44:53;101774.91;;;2.47;100.00
3434;BME280;1730;41.932;25.548;2022-11-14T05:47:18;102143.53;;;4.69;100.00
3434;BME280;1730;41.932;25.548;2022-11-14T05:49:44;102142.69;;;4.67;100.00
3434;BME280;1730;41.932;25.548;2022-11-14T05:52:09;102189.81;;;4.99;100.00
3434;BME280;1730;41.932;25.548;2022-11-14T05:54:35;102035.84;;;4.10;100.00
3434;BME280;1730;41.932;25.548;2022-11-14T05:57:00;101881.81;;;3.29;100.00
3434;BME280;1730;41.932;25.548;2022-11-14T05:59:26;102148.87;;;4.97;100.00
3434;BME280;1730;41.932;25.548;2022-11-14T06:01:52;101836.03;;;3.13;100.00
3434;BME280;1730;41.932;25.548;2022-11-14T06:04:18;101988.56;;;4.14;100.00
3434;BME280;1730;41.932;25.548;2022-11-14T06:06:44;102004.41;;;4.20;100.00
3434;BME280;1730;41.932;25.548;2022-11-14T06:09:09;102143.06;;;5.11;100.00
3434;BME280;1730;41.932;25.548;2022-11-14T06:11:35;102143.84;;;5.14;100.00
3434;BME280;1730;41.932;25.548;2022-11-14T06:14:01;102127.03;;;5.11;100.00
3434;BME280;1730;41.932;25.548;2022-11-14T06:16:27;101643.94;;;2.36;100.00
3434;BME280;1730;41.932;25.548;2022-11-14T06:18:53;102141.25;;;5.13;100.00
3434;BME280;1730;41.932;25.548;2022-11-14T06:21:21;102149.72;;;5.25;100.00
3434;BME280;1730;41.932;25.548;2022-11-14T06:23:47;102147.09;;;5.24;100.00
3434;BME280;1730;41.932;25.548;2022-11-14T06:26:24;102164.91;;;5.51;100.00
3434;BME280;1730;41.932;25.548;2022-11-14T06:28:51;101452.03;;;1.27;100.00
3434;BME280;1730;41.932;25.548;2022-11-14T06:31:18;102015.28;;;4.69;100.00
3434;BME280;1730;41.932;25.548;2022-11-14T06:33:44;102160.78;;;5.67;100.00
3434;BME280;1730;41.932;25.548;2022-11-14T06:36:10;102166.53;;;6.06;100.00
3434;BME280;1730;41.932;25.548;2022-11-14T06:38:37;102180.38;;;6.19;100.00
3434;BME280;1730;41.932;25.548;2022-11-14T06:43:38;101863.84;;;5.18;100.00
3434;BME280;1730;41.932;25.548;2022-11-14T06:46:05;102069.94;;;6.57;100.00
3434;BME280;1730;41.932;25.548;2022-11-14T06:48:34;102042.69;;;6.68;100.00
3434;BME280;1730;41.932;25.548;2022-11-14T06:51:14;102050.03;;;7.06;100.00
3434;BME280;1730;41.932;25.548;2022-11-14T06:53:47;101939.97;;;7.08;100.00
3434;BME280;1730;41.932;25.548;2022-11-14T06:56:20;101759.06;;;5.95;100.00
3434;BME280;1730;41.932;25.548;2022-11-14T06:59:05;101849.88;;;6.84;100.00
3434;BME280;1730;41.932;25.548;2022-11-14T07:01:50;101752.25;;;6.28;100.00
3434;BME280;1730;41.932;25.548;2022-11-14T07:04:28;101848.69;;;7.09;100.00
3434;BME280;1730;41.932;25.548;2022-11-14T07:06:56;101849.66;;;6.88;100.00
3434;BME280;1730;41.932;25.548;2022-11-14T07:09:32;101828.12;;;6.90;100.00
3434;BME280;1730;41.932;25.548;2022-11-14T07:12:15;101645.75;;;5.95;100.00
3434;BME280;1730;41.932;25.548;2022-11-14T07:14:56;101512.31;;;5.25;100.00
3434;BME280;1730;41.932;25.548;2022-11-14T07:17:38;101790.25;;;6.97;100.00
3434;BME280;1730;41.932;25.548;2022-11-14T07:20:17;101819.59;;;7.00;100.00
3434;BME280;1730;41.932;25.548;2022-11-14T07:28:49;101838.13;;;7.62;100.00
3434;BME280;1730;41.932;25.548;2022-11-14T07:31:28;101849.66;;;7.64;100.00
3434;BME280;1730;41.932;25.548;2022-11-14T07:34:09;101876.53;;;8.19;100.00
3434;BME280;1730;41.932;25.548;2022-11-14T07:37:00;101882.13;;;8.33;100.00
3434;BME280;1730;41.932;25.548;2022-11-14T07:39:48;101833.75;;;8.50;100.00
3434;BME280;1730;41.932;25.548;2022-11-14T07:42:30;101661.22;;;7.56;100.00
3434;BME280;1730;41.932;25.548;2022-11-14T07:45:17;101864.63;;;8.93;100.00
3434;BME280;1730;41.932;25.548;2022-11-14T07:48:12;101815.78;;;9.01;100.00
3434;BME280;1730;41.932;25.548;2022-11-14T07:51:14;101230.28;;;5.86;100.00
3434;BME280;1730;41.932;25.548;2022-11-14T07:54:08;101791.72;;;9.46;100.00
3434;BME280;1730;41.932;25.548;2022-11-14T07:56:56;101482.78;;;8.12;100.00
3434;BME280;1730;41.932;25.548;2022-11-14T07:59:50;101480.69;;;8.80;100.00
3434;BME280;1730;41.932;25.548;2022-11-14T08:02:45;101546.16;;;9.98;100.00
3434;BME280;1730;41.932;25.548;2022-11-14T08:05:15;101579.09;;;10.46;100.00
3434;BME280;1730;41.932;25.548;2022-11-14T08:16:28;101478.41;;;10.86;100.00
3434;BME280;1730;41.932;25.548;2022-11-14T08:19:09;101525.97;;;11.41;100.00
3434;BME280;1730;41.932;25.548;2022-11-14T08:21:46;101329.09;;;10.85;100.00
3434;BME280;1730;41.932;25.548;2022-11-14T08:24:28;101465.34;;;11.45;100.00
3434;BME280;1730;41.932;25.548;2022-11-14T08:27:15;101411.22;;;11.34;100.00
3434;BME280;1730;41.932;25.548;2022-11-14T08:30:39;101420.28;;;11.70;100.00
3434;BME280;1730;41.932;25.548;2022-11-14T08:33:22;101337.72;;;12.03;100.00
3434;BME280;1730;41.932;25.548;2022-11-14T08:36:11;101257.41;;;11.56;100.00
3434;BME280;1730;41.932;25.548;2022-11-14T08:39:11;101279.78;;;11.94;100.00
3434;BME280;1730;41.932;25.548;2022-11-14T08:41:50;101239.47;;;11.91;100.00
3434;BME280;1730;41.932;25.548;2022-11-14T08:44:28;101228.62;;;11.80;100.00
3434;BME280;1730;41.932;25.548;2022-11-14T08:50:19;101219.38;;;12.41;100.00
3434;BME280;1730;41.932;25.548;2022-11-14T08:53:09;101140.56;;;12.57;100.00
3434;BME280;1730;41.932;25.548;2022-11-14T08:56:18;101080.16;;;12.34;100.00
3434;BME280;1730;41.932;25.548;2022-11-14T08:59:16;101080.38;;;12.20;100.00
3434;BME280;1730;41.932;25.548;2022-11-14T09:15:15;100898.97;;;13.39;100.00
3434;BME280;1730;41.932;25.548;2022-11-14T09:18:15;100875.84;;;13.15;100.00
3434;BME280;1730;41.932;25.548;2022-11-14T09:23:52;100833.97;;;13.19;100.00
3434;BME280;1730;41.932;25.548;2022-11-14T09:26:29;100667.94;;;12.67;100.00
3434;BME280;1730;41.932;25.548;2022-11-14T09:28:55;100769.59;;;13.32;100.00
3434;BME280;1730;41.932;25.548;2022-11-14T09:31:21;100677.37;;;13.03;100.00
3434;BME280;1730;41.932;25.548;2022-11-14T09:33:46;100633.41;;;13.30;100.00
3434;BME280;1730;41.932;25.548;2022-11-14T09:36:12;100746.66;;;14.14;100.00
3434;BME280;1730;41.932;25.548;2022-11-14T09:38:43;100717.84;;;13.94;100.00
3434;BME280;1730;41.932;25.548;2022-11-14T09:44:39;100639.88;;;14.06;100.00
3434;BME280;1730;41.932;25.548;2022-11-14T09:47:11;100593.47;;;14.37;100.00
3434;BME280;1730;41.932;25.548;2022-11-14T09:49:40;100525.22;;;14.87;100.00
3434;BME280;1730;41.932;25.548;2022-11-14T09:52:36;100470.47;;;14.92;100.00
3434;BME280;1730;41.932;25.548;2022-11-14T09:55:13;100480.94;;;15.04;100.00
3434;BME280;1730;41.932;25.548;2022-11-14T09:57:42;100437.28;;;14.88;100.00
3434;BME280;1730;41.932;25.548;2022-11-14T10:00:13;100427.59;;;14.68;100.00
3434;BME280;1730;41.932;25.548;2022-11-14T10:10:53;100380.59;;;14.67;100.00
3434;BME280;1730;41.932;25.548;2022-11-14T10:24:54;100304.38;;;15.04;100.00
3434;BME280;1730;41.932;25.548;2022-11-14T10:27:31;100290.50;;;15.41;100.00
3434;BME280;1730;41.932;25.548;2022-11-14T10:30:17;100276.53;;;15.36;100.00
3434;BME280;1730;41.932;25.548;2022-11-14T10:32:54;100152.06;;;14.46;100.00
3434;BME280;1730;41.932;25.548;2022-11-14T10:38:16;100255.41;;;15.22;100.00
3434;BME280;1730;41.932;25.548;2022-11-14T10:40:46;100243.34;;;15.24;100.00
3434;BME280;1730;41.932;25.548;2022-11-14T10:45:47;100224.09;;;15.77;100.00
3434;BME280;1730;41.932;25.548;2022-11-14T10:48:24;100085.19;;;14.37;100.00
3434;BME280;1730;41.932;25.548;2022-11-14T10:51:04;100243.28;;;15.42;100.00
3434;BME280;1730;41.932;25.548;2022-11-14T10:53:42;100125.81;;;15.56;100.00
3434;BME280;1730;41.932;25.548;2022-11-14T10:56:11;100204.16;;;15.69;100.00
3434;BME280;1730;41.932;25.548;2022-11-14T10:58:37;100204.53;;;15.74;100.00
3434;BME280;1730;41.932;25.548;2022-11-14T11:04:33;100184.59;;;15.57;100.00
3434;BME280;1730;41.932;25.548;2022-11-14T11:09:37;100106.62;;;15.66;100.00
3434;BME280;1730;41.932;25.548;2022-11-14T11:12:40;99852.84;;;14.36;100.00
3434;BME280;1730;41.932;25.548;2022-11-14T11:15:23;100137.59;;;16.13;100.00
3434;BME280;1730;41.932;25.548;2022-11-14T11:18:00;100150.50;;;15.79;100.00
3434;BME280;1730;41.932;25.548;2022-11-14T11:20:35;100119.78;;;15.45;100.00
3434;BME280;1730;41.932;25.548;2022-11-14T11:23:20;100140.16;;;16.23;100.00
3434;BME280;1730;41.932;25.548;2022-11-14T11:26:28;100090.63;;;15.55;100.00
3434;BME280;1730;41.932;25.548;2022-11-14T11:31:55;100004.91;;;15.18;100.00
3434;BME280;1730;41.932;25.548;2022-11-14T11:34:24;99961.63;;;15.17;100.00
3434;BME280;1730;41.932;25.548;2022-11-14T11:37:14;99832.00;;;14.36;100.00
3434;BME280;1730;41.932;25.548;2022-11-14T11:39:52;100105.28;;;16.18;100.00
3434;BME280;1730;41.932;25.548;2022-11-14T11:42:33;100101.91;;;15.92;100.00
3434;BME280;1730;41.932;25.548;2022-11-14T11:45:03;100111.06;;;15.75;100.00
3434;BME280;1730;41.932;25.548;2022-11-14T11:47:32;100092.38;;;16.12;100.00
3434;BME280;1730;41.932;25.548;2022-11-14T11:50:00;100108.16;;;16.25;100.00
3434;BME280;1730;41.932;25.548;2022-11-14T11:55:41;100077.06;;;16.11;100.00
3434;BME280;1730;41.932;25.548;2022-11-14T12:02:25;100146.25;;;16.41;100.00
3434;BME280;1730;41.932;25.548;2022-11-14T12:04:52;100063.72;;;16.65;100.00
3434;BME280;1730;41.932;25.548;2022-11-14T12:41:10;100054.44;;;16.27;100.00
3434;BME280;1730;41.932;25.548;2022-11-14T12:43:39;100060.31;;;16.55;100.00
3434;BME280;1730;41.932;25.548;2022-11-14T12:46:11;100028.47;;;16.55;100.00
3434;BME280;1730;41.932;25.548;2022-11-14T12:48:46;100032.66;;;16.11;100.00
3434;BME280;1730;41.932;25.548;2022-11-14T12:53:53;100039.94;;;16.35;100.00
3434;BME280;1730;41.932;25.548;2022-11-14T12:59:25;100031.78;;;16.35;100.00
3434;BME280;1730;41.932;25.548;2022-11-14T13:11:55;100002.28;;;15.75;100.00
3434;BME280;1730;41.932;25.548;2022-11-14T13:14:49;99998.47;;;16.16;100.00
3434;BME280;1730;41.932;25.548;2022-11-14T13:17:34;100018.84;;;16.29;100.00
3434;BME280;1730;41.932;25.548;2022-11-14T13:20:29;99994.47;;;15.88;100.00
3434;BME280;1730;41.932;25.548;2022-11-14T13:28:48;100027.94;;;15.56;100.00
3434;BME280;1730;41.932;25.548;2022-11-14T13:33:48;100020.28;;;16.00;100.00
3434;BME280;1730;41.932;25.548;2022-11-14T13:36:29;100018.25;;;15.78;100.00
3434;BME280;1730;41.932;25.548;2022-11-14T13:39:16;100015.53;;;15.86;100.00
3434;BME280;1730;41.932;25.548;2022-11-14T13:50:10;100008.22;;;15.62;100.00
3434;BME280;1730;41.932;25.548;2022-11-14T13:52:42;100030.31;;;15.51;100.00
3434;BME280;1730;41.932;25.548;2022-11-14T13:59:07;100034.06;;;15.66;100.00
3434;BME280;1730;41.932;25.548;2022-11-14T14:01:50;100089.78;;;15.62;100.00
3434;BME280;1730;41.932;25.548;2022-11-14T14:07:23;100035.06;;;15.73;100.00
3434;BME280;1730;41.932;25.548;2022-11-14T14:15:43;100031.91;;;16.49;100.00
3434;BME280;1730;41.932;25.548;2022-11-14T14:21:35;100021.09;;;15.44;100.00
3434;BME280;1730;41.932;25.548;2022-11-14T14:32:38;100035.88;;;14.83;100.00
3434;BME280;1730;41.932;25.548;2022-11-14T14:35:27;100030.75;;;14.72;100.00
3434;BME280;1730;41.932;25.548;2022-11-14T14:37:57;100029.53;;;14.67;100.00
3434;BME280;1730;41.932;25.548;2022-11-14T14:40:34;100054.25;;;14.30;100.00
3434;BME280;1730;41.932;25.548;2022-11-14T14:43:02;99567.44;;;11.19;100.00
3434;BME280;1730;41.932;25.548;2022-11-14T14:45:35;100026.91;;;14.49;100.00
3434;BME280;1730;41.932;25.548;2022-11-14T14:48:17;100002.06;;;14.36;100.00
3434;BME280;1730;41.932;25.548;2022-11-14T14:50:52;100038.72;;;14.40;100.00
3434;BME280;1730;41.932;25.548;2022-11-14T14:56:01;100043.31;;;13.96;100.00
3434;BME280;1730;41.932;25.548;2022-11-14T14:58:29;100068.38;;;13.90;100.00
3434;BME280;1730;41.932;25.548;2022-11-14T15:01:19;100065.44;;;13.66;100.00
3434;BME280;1730;41.932;25.548;2022-11-14T15:03:48;100089.06;;;13.56;100.00
3434;BME280;1730;41.932;25.548;2022-11-14T15:06:31;100067.22;;;13.39;100.00
3434;BME280;1730;41.932;25.548;2022-11-14T15:09:21;99939.84;;;12.69;100.00
3434;BME280;1730;41.932;25.548;2022-11-14T15:11:56;100055.41;;;13.13;100.00
3434;BME280;1730;41.932;25.548;2022-11-14T15:14:28;100103.47;;;13.11;100.00
3434;BME280;1730;41.932;25.548;2022-11-14T15:16:55;100113.22;;;12.94;100.00
3434;BME280;1730;41.932;25.548;2022-11-14T15:19:23;100011.28;;;12.21;100.00
3434;BME280;1730;41.932;25.548;2022-11-14T15:24:38;100157.56;;;12.84;100.00
3434;BME280;1730;41.932;25.548;2022-11-14T15:27:09;100139.63;;;12.73;100.00
3434;BME280;1730;41.932;25.548;2022-11-14T15:29:47;100038.97;;;11.96;100.00
3434;BME280;1730;41.932;25.548;2022-11-14T15:32:31;100148.69;;;12.54;100.00
3434;BME280;1730;41.932;25.548;2022-11-14T15:35:25;100058.44;;;11.70;100.00
3434;BME280;1730;41.932;25.548;2022-11-14T15:40:39;100190.03;;;12.37;100.00
3434;BME280;1730;41.932;25.548;2022-11-14T15:43:34;100200.97;;;12.26;100.00
3434;BME280;1730;41.932;25.548;2022-11-14T15:46:00;100221.75;;;12.26;100.00
3434;BME280;1730;41.932;25.548;2022-11-14T15:48:25;100125.13;;;11.60;100.00
3434;BME280;1730;41.932;25.548;2022-11-14T15:50:51;100211.78;;;12.16;100.00
3434;BME280;1730;41.932;25.548;2022-11-14T15:53:24;100134.06;;;11.51;100.00
3434;BME280;1730;41.932;25.548;2022-11-14T15:55:51;100250.22;;;12.10;100.00
3434;BME280;1730;41.932;25.548;2022-11-14T15:58:17;99955.59;;;10.07;100.00
3434;BME280;1730;41.932;25.548;2022-11-14T16:00:49;100035.81;;;10.55;100.00
3434;BME280;1730;41.932;25.548;2022-11-14T16:03:20;100169.63;;;11.07;100.00
3434;BME280;1730;41.932;25.548;2022-11-14T16:05:51;100305.53;;;11.97;100.00
3434;BME280;1730;41.932;25.548;2022-11-14T16:08:16;100309.91;;;11.79;100.00
3434;BME280;1730;41.932;25.548;2022-11-14T16:10:45;100342.37;;;11.58;100.00
3434;BME280;1730;41.932;25.548;2022-11-14T16:13:13;100184.06;;;10.45;100.00
3434;BME280;1730;41.932;25.548;2022-11-14T16:15:38;100366.03;;;11.45;100.00
3434;BME280;1730;41.932;25.548;2022-11-14T16:18:04;100153.75;;;9.79;100.00
3434;BME280;1730;41.932;25.548;2022-11-14T16:20:30;100242.69;;;10.43;100.00
3434;BME280;1730;41.932;25.548;2022-11-14T16:23:01;100302.06;;;10.53;100.00
3434;BME280;1730;41.932;25.548;2022-11-14T16:25:29;100083.22;;;9.33;100.00